Time;durP1;ratioP1;P1;durP2;ratioP2;P2;SDS_P1;SDS_P2;PMS_P1;PMS_P2;Temp;Humidity;BMP_temperature;BMP_pressure;BME280_temperature;BME280_humidity;BME280_pressure;Samples;Min_cycle;Max_cycle;Signal;HPM_P1;HPM_P2
2022/10/15 00:02:25;;;;;;;19.23;17.23;;;;;;;;;;5067530;28;20274;-46
2022/10/15 00:04:51;;;;;;;19.73;17.63;;;;;;;;;;5063738;28;20203;-45
2022/10/15 00:07:17;;;;;;;19.77;17.87;;;;;;;;;;5066420;28;20219;-47
2022/10/15 00:09:43;;;;;;;20.13;17.17;;;;;;;;;;5069314;28;20670;-46
2022/10/15 00:12:09;;;;;;;23.57;18.63;;;;;;;;;;5068618;28;20230;-46
2022/10/15 00:14:35;;;;;;;22.67;19.13;;;;;;;;;;5072047;28;20235;-47
2022/10/15 00:17:02;;;;;;;20.77;18.63;;;;;;;;;;5073754;28;20227;-47
2022/10/15 00:19:29;;;;;;;19.77;17.63;;;;;;;;;;5071994;28;20203;-46
2022/10/15 00:21:55;;;;;;;17.77;15.97;;;;;;;;;;5074091;28;20395;-46
2022/10/15 00:24:21;;;;;;;18.53;16.63;;;;;;;;;;5071360;28;20192;-46
2022/10/15 00:26:47;;;;;;;22.03;19.73;;;;;;;;;;5073362;28;20310;-46
2022/10/15 00:29:13;;;;;;;23.30;20.50;;;;;;;;;;5071915;28;20219;-46
2022/10/15 00:31:39;;;;;;;22.97;20.47;;;;;;;;;;5073518;28;20550;-46
2022/10/15 00:34:06;;;;;;;26.17;20.67;;;;;;;;;;5073819;28;20658;-46
2022/10/15 00:36:33;;;;;;;24.33;20.17;;;;;;;;;;5073776;28;20758;-47
2022/10/15 00:38:59;;;;;;;26.30;19.97;;;;;;;;;;5071440;28;20246;-46
2022/10/15 00:41:29;;;;;;;25.80;20.37;;;;;;;;;;5071633;28;20681;-46
2022/10/15 00:43:56;;;;;;;28.20;22.00;;;;;;;;;;5073542;28;20210;-46
2022/10/15 00:46:23;;;;;;;26.33;20.57;;;;;;;;;;5073147;28;20277;-46
2022/10/15 00:48:52;;;;;;;24.03;19.97;;;;;;;;;;5073150;28;20279;-46
2022/10/15 00:51:20;;;;;;;24.37;20.43;;;;;;;;;;5071364;28;20235;-46
2022/10/15 00:53:47;;;;;;;24.33;20.53;;;;;;;;;;5072998;28;20200;-46
2022/10/15 00:56:15;;;;;;;21.97;19.13;;;;;;;;;;5071989;28;20211;-46
2022/10/15 00:58:41;;;;;;;20.50;17.57;;;;;;;;;;5071280;28;20191;-47
2022/10/15 01:01:08;;;;;;;20.43;18.20;;;;;;;;;;5073187;28;20195;-46
2022/10/15 01:03:34;;;;;;;20.07;16.50;;;;;;;;;;5072926;28;20264;-46
2022/10/15 01:06:00;;;;;;;18.93;16.87;;;;;;;;;;5072900;28;20266;-46
2022/10/15 01:08:28;;;;;;;20.20;17.93;;;;;;;;;;5071328;28;20231;-46
2022/10/15 01:10:59;;;;;;;18.00;16.10;;;;;;;;;;5071031;28;20204;-46
2022/10/15 01:13:28;;;;;;;24.57;19.67;;;;;;;;;;5072907;28;20195;-47
2022/10/15 01:15:56;;;;;;;22.27;18.37;;;;;;;;;;5070937;28;20211;-46
2022/10/15 01:18:24;;;;;;;22.07;19.37;;;;;;;;;;5072225;28;20427;-46
2022/10/15 01:20:53;;;;;;;22.60;19.80;;;;;;;;;;5072646;28;20221;-47
2022/10/15 01:23:31;;;;;;;27.47;20.57;;;;;;;;;;5072539;28;20249;-47
2022/10/15 01:26:07;;;;;;;23.87;20.80;;;;;;;;;;5070833;28;20202;-47
2022/10/15 01:28:42;;;;;;;23.17;18.40;;;;;;;;;;5071008;28;20591;-47
2022/10/15 01:31:15;;;;;;;22.50;18.47;;;;;;;;;;5068979;28;20207;-47
2022/10/15 01:33:43;;;;;;;27.77;21.27;;;;;;;;;;5071329;28;20246;-47
2022/10/15 01:36:15;;;;;;;31.43;22.57;;;;;;;;;;5070492;28;20199;-47
2022/10/15 01:38:46;;;;;;;26.40;21.10;;;;;;;;;;5070639;28;20587;-47
2022/10/15 01:41:15;;;;;;;24.30;19.73;;;;;;;;;;5072523;28;20278;-47
2022/10/15 01:43:44;;;;;;;19.83;17.63;;;;;;;;;;5072100;28;20685;-47
2022/10/15 01:46:13;;;;;;;23.93;19.73;;;;;;;;;;5072205;28;20618;-47
2022/10/15 01:48:40;;;;;;;22.10;17.90;;;;;;;;;;5070466;28;20305;-47
2022/10/15 01:51:07;;;;;;;23.60;17.50;;;;;;;;;;5069595;28;20243;-47
2022/10/15 01:53:34;;;;;;;27.73;19.87;;;;;;;;;;5069999;28;20689;-46
2022/10/15 01:56:03;;;;;;;26.33;20.17;;;;;;;;;;5070189;28;20203;-47
2022/10/15 01:58:30;;;;;;;23.73;18.70;;;;;;;;;;5071899;28;20226;-47
2022/10/15 02:00:57;;;;;;;25.97;18.87;;;;;;;;;;5071800;28;20195;-47
2022/10/15 02:03:24;;;;;;;25.63;18.87;;;;;;;;;;5069958;28;20650;-46
2022/10/15 02:05:53;;;;;;;40.37;25.97;;;;;;;;;;5071554;28;20245;-46
2022/10/15 02:08:23;;;;;;;38.03;23.73;;;;;;;;;;5070140;28;20235;-46
2022/10/15 02:10:54;;;;;;;52.63;28.50;;;;;;;;;;5069843;28;20195;-46
2022/10/15 02:13:24;;;;;;;63.57;30.40;;;;;;;;;;5071302;28;20713;-47
2022/10/15 02:15:52;;;;;;;57.40;30.23;;;;;;;;;;5069715;28;20270;-46
2022/10/15 02:18:24;;;;;;;46.73;27.80;;;;;;;;;;5069543;28;20711;-46
2022/10/15 02:20:55;;;;;;;50.20;27.60;;;;;;;;;;5071740;28;20192;-46
2022/10/15 02:23:24;;;;;;;71.03;33.73;;;;;;;;;;5071651;28;20196;-46
2022/10/15 02:25:51;;;;;;;52.80;30.17;;;;;;;;;;5071547;28;20228;-47
2022/10/15 02:28:18;;;;;;;51.47;29.47;;;;;;;;;;5070914;28;20227;-46
2022/10/15 02:30:47;;;;;;;47.57;29.53;;;;;;;;;;5071623;28;20236;-48
2022/10/15 02:33:14;;;;;;;54.57;30.67;;;;;;;;;;5071828;28;20208;-46
2022/10/15 02:35:41;;;;;;;60.27;31.77;;;;;;;;;;5069295;28;20203;-47
2022/10/15 02:38:10;;;;;;;49.60;30.07;;;;;;;;;;5070895;28;20608;-47
2022/10/15 02:40:37;;;;;;;48.10;26.97;;;;;;;;;;5071444;28;20750;-48
2022/10/15 02:43:04;;;;;;;48.57;29.27;;;;;;;;;;5071473;28;20207;-47
2022/10/15 02:45:30;;;;;;;59.23;31.30;;;;;;;;;;5071436;28;20646;-47
2022/10/15 02:47:56;;;;;;;48.70;28.60;;;;;;;;;;5071177;28;20306;-47
2022/10/15 02:50:22;;;;;;;47.47;28.30;;;;;;;;;;5071187;28;20318;-47
2022/10/15 02:52:48;;;;;;;49.57;28.70;;;;;;;;;;5071456;28;20737;-47
2022/10/15 02:55:16;;;;;;;43.97;28.33;;;;;;;;;;5071470;28;20286;-47
2022/10/15 02:57:42;;;;;;;51.97;27.63;;;;;;;;;;5071336;28;20195;-47
2022/10/15 03:00:09;;;;;;;53.13;29.53;;;;;;;;;;5069327;28;20196;-47
2022/10/15 03:02:35;;;;;;;57.37;30.00;;;;;;;;;;5069460;28;20239;-47
2022/10/15 03:05:01;;;;;;;60.60;31.43;;;;;;;;;;5071553;28;20257;-46
2022/10/15 03:07:27;;;;;;;48.87;28.80;;;;;;;;;;5071378;28;20323;-47
2022/10/15 03:09:53;;;;;;;56.53;29.77;;;;;;;;;;5069612;28;20302;-47
2022/10/15 03:12:22;;;;;;;158.80;29.50;;;;;;;;;;5070995;28;20188;-47
2022/10/15 03:14:48;;;;;;;159.20;30.50;;;;;;;;;;5069247;28;20219;-46
2022/10/15 03:17:14;;;;;;;37.83;24.77;;;;;;;;;;5071223;28;20191;-46
2022/10/15 03:19:40;;;;;;;116.50;25.17;;;;;;;;;;5070646;28;20203;-46
2022/10/15 03:22:06;;;;;;;61.00;22.47;;;;;;;;;;5071434;28;20231;-47
2022/10/15 03:24:32;;;;;;;33.30;20.67;;;;;;;;;;5071331;28;20207;-47
2022/10/15 03:26:58;;;;;;;23.87;19.33;;;;;;;;;;5069242;28;20219;-47
2022/10/15 03:29:26;;;;;;;48.17;20.60;;;;;;;;;;5071475;28;20563;-47
2022/10/15 03:31:52;;;;;;;20.40;18.20;;;;;;;;;;5071048;28;20207;-47
2022/10/15 03:34:18;;;;;;;25.07;19.93;;;;;;;;;;5071333;28;20200;-47
2022/10/15 03:36:44;;;;;;;23.00;18.67;;;;;;;;;;5071133;28;20192;-46
2022/10/15 03:39:10;;;;;;;25.20;18.80;;;;;;;;;;5068661;28;20196;-47
2022/10/15 03:41:36;;;;;;;59.70;21.30;;;;;;;;;;5070541;28;20198;-47
2022/10/15 03:44:03;;;;;;;51.07;20.40;;;;;;;;;;5070856;28;20577;-46
2022/10/15 03:46:30;;;;;;;149.10;23.70;;;;;;;;;;5071211;28;20199;-47
2022/10/15 03:48:57;;;;;;;26.17;20.37;;;;;;;;;;5074831;28;20206;-47
2022/10/15 03:51:23;;;;;;;23.83;19.47;;;;;;;;;;5074859;28;20384;-46
2022/10/15 03:53:49;;;;;;;185.13;23.13;;;;;;;;;;5075135;28;20199;-47
2022/10/15 03:56:15;;;;;;;21.83;17.77;;;;;;;;;;5074631;28;20501;-47
2022/10/15 03:58:41;;;;;;;36.63;19.37;;;;;;;;;;5074842;28;20205;-46
2022/10/15 04:01:08;;;;;;;20.50;17.20;;;;;;;;;;5074803;28;20199;-47
2022/10/15 04:03:36;;;;;;;30.90;17.63;;;;;;;;;;5074885;28;20203;-46
2022/10/15 04:06:02;;;;;;;19.93;17.83;;;;;;;;;;5074254;28;20250;-46
2022/10/15 04:08:28;;;;;;;63.03;19.30;;;;;;;;;;5074553;28;20245;-46
2022/10/15 04:10:54;;;;;;;85.83;20.43;;;;;;;;;;5072534;28;20199;-46
2022/10/15 04:13:20;;;;;;;50.33;19.43;;;;;;;;;;5074589;28;20198;-47
2022/10/15 04:15:46;;;;;;;20.17;17.43;;;;;;;;;;5074411;28;20214;-46
2022/10/15 04:18:12;;;;;;;17.97;16.07;;;;;;;;;;5074432;28;20203;-46
2022/10/15 04:20:41;;;;;;;58.90;18.37;;;;;;;;;;5074332;28;20241;-47
2022/10/15 04:23:07;;;;;;;39.83;18.57;;;;;;;;;;5074441;28;20625;-47
2022/10/15 04:25:33;;;;;;;222.83;21.33;;;;;;;;;;5074438;28;20546;-47
2022/10/15 04:27:59;;;;;;;118.87;20.43;;;;;;;;;;5074137;28;20313;-47
2022/10/15 04:30:25;;;;;;;102.10;18.80;;;;;;;;;;5074474;28;20665;-47
2022/10/15 04:32:52;;;;;;;85.50;18.80;;;;;;;;;;5074158;28;20582;-47
2022/10/15 04:35:18;;;;;;;23.90;15.13;;;;;;;;;;5071872;28;20637;-47
2022/10/15 04:37:45;;;;;;;171.27;20.33;;;;;;;;;;5071889;28;20282;-47
2022/10/15 04:40:12;;;;;;;117.40;22.23;;;;;;;;;;5072122;28;20203;-47
2022/10/15 04:42:38;;;;;;;17.70;15.67;;;;;;;;;;5073467;28;20226;-47
2022/10/15 04:45:05;;;;;;;52.83;19.03;;;;;;;;;;5074044;28;20199;-47
2022/10/15 04:47:31;;;;;;;58.37;18.17;;;;;;;;;;5073537;28;20227;-47
2022/10/15 04:49:57;;;;;;;128.13;20.13;;;;;;;;;;5071755;28;20239;-47
2022/10/15 04:52:23;;;;;;;57.67;19.17;;;;;;;;;;5071786;28;20214;-47
2022/10/15 04:54:50;;;;;;;18.30;16.27;;;;;;;;;;5073713;28;20199;-47
2022/10/15 04:57:17;;;;;;;140.00;21.20;;;;;;;;;;5073445;28;20253;-47
2022/10/15 04:59:43;;;;;;;41.70;17.57;;;;;;;;;;5070069;28;20560;-47
2022/10/15 05:02:09;;;;;;;21.37;18.23;;;;;;;;;;5073267;28;20766;-47
2022/10/15 05:04:35;;;;;;;29.03;19.40;;;;;;;;;;5072608;28;20357;-47
2022/10/15 05:07:02;;;;;;;123.17;22.23;;;;;;;;;;5072745;28;20227;-47
2022/10/15 05:09:28;;;;;;;57.63;22.07;;;;;;;;;;5072519;28;20242;-47
2022/10/15 05:11:55;;;;;;;51.40;21.50;;;;;;;;;;5072826;28;20200;-47
2022/10/15 05:14:22;;;;;;;30.73;21.10;;;;;;;;;;5073219;28;20195;-46
2022/10/15 05:16:48;;;;;;;28.73;20.37;;;;;;;;;;5073059;28;20619;-47
2022/10/15 05:19:15;;;;;;;25.97;19.40;;;;;;;;;;5072868;28;20677;-50
2022/10/15 05:21:42;;;;;;;37.70;22.87;;;;;;;;;;5072135;28;20226;-47
2022/10/15 05:24:08;;;;;;;29.97;20.67;;;;;;;;;;5072561;28;20199;-48
2022/10/15 05:26:34;;;;;;;27.50;20.30;;;;;;;;;;5072517;28;20533;-47
2022/10/15 05:29:02;;;;;;;36.70;23.63;;;;;;;;;;5072885;28;20199;-47
2022/10/15 05:31:29;;;;;;;34.87;22.33;;;;;;;;;;5072979;28;20282;-47
2022/10/15 05:33:55;;;;;;;37.90;23.53;;;;;;;;;;5073203;28;20195;-47
2022/10/15 05:36:22;;;;;;;40.10;24.17;;;;;;;;;;5069267;28;20195;-48
2022/10/15 05:38:49;;;;;;;45.17;25.40;;;;;;;;;;5071832;28;20199;-47
2022/10/15 05:41:15;;;;;;;60.33;27.90;;;;;;;;;;5072140;28;20294;-47
2022/10/15 05:43:41;;;;;;;51.03;27.87;;;;;;;;;;5072045;28;20600;-47
2022/10/15 05:46:09;;;;;;;54.40;27.33;;;;;;;;;;5072593;28;20248;-47
2022/10/15 05:48:35;;;;;;;87.33;28.73;;;;;;;;;;5069248;28;20223;-47
2022/10/15 05:51:01;;;;;;;57.90;28.13;;;;;;;;;;5071769;28;20297;-47
2022/10/15 05:53:27;;;;;;;86.33;29.80;;;;;;;;;;5072758;28;20199;-47
2022/10/15 05:55:53;;;;;;;69.90;29.97;;;;;;;;;;5071794;28;20196;-47
2022/10/15 05:58:19;;;;;;;82.40;31.27;;;;;;;;;;5071793;28;20192;-47
2022/10/15 06:00:52;;;;;;;106.53;49.43;;;;;;;;;;5071998;28;20191;-47
2022/10/15 06:03:19;;;;;;;139.60;48.87;;;;;;;;;;5071727;28;20199;-47
2022/10/15 06:05:45;;;;;;;127.43;36.17;;;;;;;;;;5069637;28;20242;-47
2022/10/15 06:08:11;;;;;;;192.53;35.63;;;;;;;;;;5071425;28;20256;-47
2022/10/15 06:10:38;;;;;;;65.43;30.90;;;;;;;;;;5071126;28;20242;-47
2022/10/15 06:13:04;;;;;;;68.83;30.93;;;;;;;;;;5070341;28;20203;-48
2022/10/15 06:15:31;;;;;;;81.50;30.37;;;;;;;;;;5071551;28;20650;-48
2022/10/15 06:17:57;;;;;;;209.10;34.40;;;;;;;;;;5071472;28;20238;-47
2022/10/15 06:20:24;;;;;;;61.57;29.27;;;;;;;;;;5071715;28;20694;-47
2022/10/15 06:22:50;;;;;;;66.27;29.73;;;;;;;;;;5071555;28;20686;-47
2022/10/15 06:25:16;;;;;;;49.70;27.40;;;;;;;;;;5069484;28;20225;-48
2022/10/15 06:27:42;;;;;;;56.27;27.47;;;;;;;;;;5071721;28;20311;-47
2022/10/15 06:30:09;;;;;;;53.87;27.23;;;;;;;;;;5072274;28;20219;-47
2022/10/15 06:32:35;;;;;;;57.83;29.33;;;;;;;;;;5072621;28;20260;-48
2022/10/15 06:35:01;;;;;;;71.83;29.23;;;;;;;;;;5067902;28;20657;-47
2022/10/15 06:37:29;;;;;;;143.40;31.43;;;;;;;;;;5071319;28;20658;-47
2022/10/15 06:39:55;;;;;;;59.57;28.10;;;;;;;;;;5071631;28;20200;-47
2022/10/15 06:42:21;;;;;;;63.23;26.63;;;;;;;;;;5071725;28;20650;-47
2022/10/15 06:44:47;;;;;;;53.27;27.70;;;;;;;;;;5069674;28;20196;-47
2022/10/15 06:47:13;;;;;;;46.33;27.13;;;;;;;;;;5070501;28;20223;-47
2022/10/15 06:49:39;;;;;;;89.83;28.37;;;;;;;;;;5071702;28;20238;-48
2022/10/15 06:52:05;;;;;;;52.30;27.97;;;;;;;;;;5071530;28;20603;-47
2022/10/15 06:54:33;;;;;;;62.90;28.10;;;;;;;;;;5071764;28;20666;-47
2022/10/15 06:56:59;;;;;;;43.87;25.17;;;;;;;;;;5069883;28;20199;-47
2022/10/15 06:59:25;;;;;;;112.67;28.53;;;;;;;;;;5070463;28;20213;-47
2022/10/15 07:01:51;;;;;;;33.20;23.07;;;;;;;;;;5071838;28;20587;-48
2022/10/15 07:04:17;;;;;;;52.87;22.03;;;;;;;;;;5072151;28;20230;-47
2022/10/15 07:06:43;;;;;;;36.73;23.23;;;;;;;;;;5071960;28;20207;-47
2022/10/15 07:09:09;;;;;;;29.73;20.83;;;;;;;;;;5071648;28;20649;-47
2022/10/15 07:11:36;;;;;;;31.23;21.33;;;;;;;;;;5071601;28;20203;-47
2022/10/15 07:14:03;;;;;;;45.87;22.33;;;;;;;;;;5071718;28;20196;-47
2022/10/15 07:16:29;;;;;;;34.40;22.90;;;;;;;;;;5068592;28;20616;-49
2022/10/15 07:18:55;;;;;;;40.47;23.27;;;;;;;;;;5067529;28;20806;-49
2022/10/15 07:21:21;;;;;;;32.67;22.63;;;;;;;;;;5069460;28;20199;-48
2022/10/15 07:23:47;;;;;;;42.13;23.83;;;;;;;;;;5071117;28;20199;-47
2022/10/15 07:26:14;;;;;;;37.07;24.03;;;;;;;;;;5070627;28;20261;-47
2022/10/15 07:28:44;;;;;;;37.60;23.37;;;;;;;;;;5071009;28;20227;-47
2022/10/15 07:31:10;;;;;;;48.57;26.67;;;;;;;;;;5071102;28;20199;-47
2022/10/15 07:33:36;;;;;;;38.53;25.47;;;;;;;;;;5070809;28;20211;-48
2022/10/15 07:36:03;;;;;;;51.00;27.17;;;;;;;;;;5070743;28;20616;-48
2022/10/15 07:38:29;;;;;;;49.70;26.87;;;;;;;;;;5071181;28;20658;-49
2022/10/15 07:40:57;;;;;;;48.20;26.93;;;;;;;;;;5070904;28;20282;-47
2022/10/15 07:43:23;;;;;;;55.93;27.13;;;;;;;;;;5071087;28;20219;-48
2022/10/15 07:45:51;;;;;;;54.10;28.10;;;;;;;;;;5071378;28;20196;-48
2022/10/15 07:48:17;;;;;;;45.10;25.70;;;;;;;;;;5067687;28;20233;-45
2022/10/15 07:50:43;;;;;;;48.33;26.90;;;;;;;;;;5069061;28;20326;-45
2022/10/15 07:53:09;;;;;;;46.00;26.97;;;;;;;;;;5071500;28;20203;-45
2022/10/15 07:55:35;;;;;;;45.07;26.80;;;;;;;;;;5070231;28;20206;-46
2022/10/15 07:58:04;;;;;;;41.43;25.33;;;;;;;;;;5071396;28;20214;-46
2022/10/15 08:00:30;;;;;;;40.33;25.20;;;;;;;;;;5071558;28;20195;-47
2022/10/15 08:02:58;;;;;;;43.00;26.47;;;;;;;;;;5069889;28;20637;-47
2022/10/15 08:05:24;;;;;;;38.27;24.97;;;;;;;;;;5069342;28;20207;-47
2022/10/15 08:07:50;;;;;;;36.67;25.47;;;;;;;;;;5071152;28;20239;-47
2022/10/15 08:10:17;;;;;;;35.40;24.47;;;;;;;;;;5071401;28;20206;-47
2022/10/15 08:12:43;;;;;;;35.37;25.27;;;;;;;;;;5071331;28;20207;-46
2022/10/15 08:15:10;;;;;;;32.87;24.33;;;;;;;;;;5071133;28;20249;-46
2022/10/15 08:17:36;;;;;;;36.07;24.40;;;;;;;;;;5070855;28;20196;-46
2022/10/15 08:20:03;;;;;;;36.60;25.33;;;;;;;;;;5070648;28;20390;-46
2022/10/15 08:22:30;;;;;;;36.67;25.40;;;;;;;;;;5071627;28;20200;-46
2022/10/15 08:24:56;;;;;;;32.97;25.30;;;;;;;;;;5071255;28;20566;-47
2022/10/15 08:27:22;;;;;;;31.67;23.00;;;;;;;;;;5071430;28;20314;-46
2022/10/15 08:29:48;;;;;;;28.80;22.50;;;;;;;;;;5071288;28;20240;-47
2022/10/15 08:32:14;;;;;;;31.20;25.23;;;;;;;;;;5071139;28;20665;-46
2022/10/15 08:34:40;;;;;;;28.67;22.70;;;;;;;;;;5074483;28;20198;-46
2022/10/15 08:37:07;;;;;;;30.77;23.77;;;;;;;;;;5075043;28;20573;-46
2022/10/15 08:39:33;;;;;;;30.40;23.33;;;;;;;;;;5074992;28;20644;-46
2022/10/15 08:42:02;;;;;;;29.07;23.07;;;;;;;;;;5074723;28;20677;-46
2022/10/15 08:44:29;;;;;;;33.83;24.93;;;;;;;;;;5074383;28;20642;-46
2022/10/15 08:46:58;;;;;;;33.17;25.63;;;;;;;;;;5074266;28;20692;-46
2022/10/15 08:49:27;;;;;;;33.63;25.50;;;;;;;;;;5074467;28;20193;-46
2022/10/15 08:51:54;;;;;;;33.23;25.90;;;;;;;;;;5074509;28;20226;-46
2022/10/15 08:54:22;;;;;;;36.30;26.73;;;;;;;;;;5074576;28;20195;-47
2022/10/15 08:56:50;;;;;;;38.07;26.83;;;;;;;;;;5074457;28;20220;-45
2022/10/15 08:59:20;;;;;;;31.17;25.30;;;;;;;;;;5074253;28;20248;-45
2022/10/15 09:01:50;;;;;;;31.43;25.00;;;;;;;;;;5074415;28;20199;-45
2022/10/15 09:04:21;;;;;;;32.13;24.27;;;;;;;;;;5073984;28;20771;-47
2022/10/15 09:06:49;;;;;;;28.57;23.73;;;;;;;;;;5074198;28;20195;-46
2022/10/15 09:09:18;;;;;;;29.87;23.50;;;;;;;;;;5074072;28;20219;-46
2022/10/15 09:11:50;;;;;;;32.30;24.77;;;;;;;;;;5074099;28;20717;-46
2022/10/15 09:14:19;;;;;;;33.37;25.50;;;;;;;;;;5068100;28;20212;-46
2022/10/15 09:16:47;;;;;;;33.67;25.57;;;;;;;;;;5073378;28;20196;-46
2022/10/15 09:19:15;;;;;;;31.90;24.80;;;;;;;;;;5073663;28;20203;-46
2022/10/15 09:21:42;;;;;;;33.10;25.90;;;;;;;;;;5073469;28;20216;-45
2022/10/15 09:24:10;;;;;;;38.00;27.40;;;;;;;;;;5072735;28;20203;-45
2022/10/15 09:26:41;;;;;;;42.17;28.30;;;;;;;;;;5072903;28;20200;-46
2022/10/15 09:29:14;;;;;;;35.53;27.33;;;;;;;;;;5071533;28;20227;-45
2022/10/15 09:31:42;;;;;;;32.80;26.53;;;;;;;;;;5072989;28;20589;-46
2022/10/15 09:34:13;;;;;;;34.80;27.73;;;;;;;;;;5073003;28;20596;-46
2022/10/15 09:36:41;;;;;;;33.40;26.93;;;;;;;;;;5072869;28;20199;-46
2022/10/15 09:39:21;;;;;;;37.03;29.33;;;;;;;;;;5072498;28;20650;-46
2022/10/15 09:41:52;;;;;;;39.17;29.40;;;;;;;;;;5072897;28;20200;-46
2022/10/15 09:44:21;;;;;;;36.97;27.37;;;;;;;;;;5071803;28;20230;-46
2022/10/15 09:46:49;;;;;;;33.67;26.80;;;;;;;;;;5072126;28;20613;-46
2022/10/15 09:49:19;;;;;;;32.10;26.37;;;;;;;;;;5072624;28;20208;-47
2022/10/15 09:51:47;;;;;;;33.73;25.33;;;;;;;;;;5072216;28;20228;-46
2022/10/15 09:54:20;;;;;;;33.73;26.13;;;;;;;;;;5073076;28;20197;-46
2022/10/15 09:56:47;;;;;;;29.23;24.53;;;;;;;;;;5072380;28;20203;-46
2022/10/15 09:59:15;;;;;;;30.00;23.27;;;;;;;;;;5072110;28;20207;-46
2022/10/15 10:01:55;;;;;;;30.03;24.70;;;;;;;;;;5072295;28;20606;-46
2022/10/15 10:04:21;;;;;;;29.43;24.20;;;;;;;;;;5066894;28;20634;-46
2022/10/15 10:06:49;;;;;;;28.33;23.97;;;;;;;;;;5071635;28;20772;-46
2022/10/15 10:09:17;;;;;;;30.10;26.17;;;;;;;;;;5072218;28;20234;-46
2022/10/15 10:11:48;;;;;;;31.27;24.93;;;;;;;;;;5072421;28;20207;-47
2022/10/15 10:14:21;;;;;;;27.90;23.43;;;;;;;;;;5072596;28;20242;-46
2022/10/15 10:17:02;;;;;;;27.10;23.13;;;;;;;;;;5071959;28;20224;-45
2022/10/15 10:19:29;;;;;;;29.83;24.80;;;;;;;;;;5072266;28;20205;-45
2022/10/15 10:22:05;;;;;;;25.80;22.30;;;;;;;;;;5071473;28;20692;-46
2022/10/15 10:24:33;;;;;;;30.10;25.87;;;;;;;;;;5071787;28;20201;-48
2022/10/15 10:27:00;;;;;;;28.43;23.77;;;;;;;;;;5071731;28;20217;-46
2022/10/15 10:29:26;;;;;;;28.47;22.53;;;;;;;;;;5071897;28;20297;-46
2022/10/15 10:31:52;;;;;;;28.33;22.87;;;;;;;;;;5071816;28;20542;-46
2022/10/15 10:34:23;;;;;;;26.80;21.60;;;;;;;;;;5071355;28;20947;-46
2022/10/15 10:36:51;;;;;;;25.67;21.77;;;;;;;;;;5071676;28;20203;-47
2022/10/15 10:39:24;;;;;;;22.90;20.03;;;;;;;;;;5071520;28;20251;-46
2022/10/15 10:41:50;;;;;;;25.30;21.60;;;;;;;;;;5070756;28;20294;-46
2022/10/15 10:44:21;;;;;;;24.00;21.37;;;;;;;;;;5071284;28;20683;-46
2022/10/15 10:47:00;;;;;;;25.57;21.00;;;;;;;;;;5070817;28;20203;-46
2022/10/15 10:49:31;;;;;;;27.10;21.83;;;;;;;;;;5071234;28;20234;-46
2022/10/15 10:51:58;;;;;;;22.60;19.63;;;;;;;;;;5071091;28;20284;-46
2022/10/15 10:54:25;;;;;;;23.10;19.30;;;;;;;;;;5071414;28;20237;-46
2022/10/15 10:56:52;;;;;;;20.47;18.27;;;;;;;;;;5070589;28;20199;-46
2022/10/15 10:59:22;;;;;;;23.17;20.73;;;;;;;;;;5070856;28;20195;-46
2022/10/15 11:01:48;;;;;;;23.30;20.10;;;;;;;;;;5071353;28;20225;-46
2022/10/15 11:04:19;;;;;;;25.17;19.70;;;;;;;;;;5071580;28;20278;-46
2022/10/15 11:06:53;;;;;;;23.63;20.40;;;;;;;;;;5071434;28;20208;-46
2022/10/15 11:09:41;;;;;;;24.90;20.23;;;;;;;;;;5070852;28;20298;-46
2022/10/15 11:12:27;;;;;;;24.03;19.50;;;;;;;;;;5070889;28;20274;-46
2022/10/15 11:14:56;;;;;;;23.17;19.77;;;;;;;;;;5071076;28;20203;-45
2022/10/15 11:17:26;;;;;;;28.33;19.27;;;;;;;;;;5070587;28;20254;-55
2022/10/15 11:19:57;;;;;;;22.20;17.53;;;;;;;;;;5070757;28;20204;-46
2022/10/15 11:22:39;;;;;;;20.17;16.43;;;;;;;;;;5071281;28;20199;-46
2022/10/15 11:25:14;;;;;;;20.13;17.23;;;;;;;;;;5070739;28;20861;-45
2022/10/15 11:27:46;;;;;;;23.07;18.00;;;;;;;;;;5070899;28;20228;-45
2022/10/15 11:30:18;;;;;;;17.93;15.37;;;;;;;;;;5071074;28;20205;-46
2022/10/15 11:32:50;;;;;;;20.37;17.67;;;;;;;;;;5071065;28;20210;-45
2022/10/15 11:35:23;;;;;;;18.03;15.53;;;;;;;;;;5071195;28;20749;-45
2022/10/15 11:37:55;;;;;;;19.40;15.97;;;;;;;;;;5070970;28;20192;-46
2022/10/15 11:40:31;;;;;;;18.33;15.60;;;;;;;;;;5070854;28;20200;-46
2022/10/15 11:42:58;;;;;;;19.03;16.93;;;;;;;;;;5070965;28;20211;-46
2022/10/15 11:45:42;;;;;;;20.97;17.10;;;;;;;;;;5070898;28;20203;-46
2022/10/15 11:48:10;;;;;;;20.20;17.40;;;;;;;;;;5070485;28;20564;-47
2022/10/15 11:50:40;;;;;;;22.33;17.53;;;;;;;;;;5070479;28;20567;-46
2022/10/15 11:53:24;;;;;;;19.93;17.10;;;;;;;;;;5070627;28;20214;-46
2022/10/15 11:55:54;;;;;;;21.43;16.73;;;;;;;;;;5070923;28;20199;-46
2022/10/15 11:58:25;;;;;;;18.30;16.30;;;;;;;;;;5070339;28;20224;-46
2022/10/15 12:00:54;;;;;;;21.53;17.50;;;;;;;;;;5070784;28;20223;-47
2022/10/15 12:03:22;;;;;;;18.50;14.83;;;;;;;;;;5070150;28;20192;-46
2022/10/15 12:05:50;;;;;;;17.53;15.33;;;;;;;;;;5070222;28;20281;-47
2022/10/15 12:08:17;;;;;;;16.33;14.40;;;;;;;;;;5071171;28;20230;-47
2022/10/15 12:10:54;;;;;;;16.13;14.20;;;;;;;;;;5074515;28;20209;-47
2022/10/15 12:13:25;;;;;;;15.27;13.67;;;;;;;;;;5074102;28;20197;-47
2022/10/15 12:15:56;;;;;;;14.67;13.13;;;;;;;;;;5074428;28;20205;-46
2022/10/15 12:18:25;;;;;;;14.53;12.97;;;;;;;;;;5074436;28;20242;-47
2022/10/15 12:20:54;;;;;;;13.37;12.00;;;;;;;;;;5074165;28;20748;-46
2022/10/15 12:23:22;;;;;;;14.13;11.50;;;;;;;;;;5074137;28;20206;-46
2022/10/15 12:25:48;;;;;;;10.73;9.63;;;;;;;;;;5074087;28;20200;-48
2022/10/15 12:28:20;;;;;;;12.70;11.33;;;;;;;;;;5073834;28;20656;-47
2022/10/15 12:30:56;;;;;;;11.00;10.00;;;;;;;;;;5074217;28;20207;-48
2022/10/15 12:33:25;;;;;;;11.50;10.40;;;;;;;;;;5073636;28;20221;-47
2022/10/15 12:35:55;;;;;;;10.00;8.80;;;;;;;;;;5074212;28;20196;-46
2022/10/15 12:38:31;;;;;;;10.27;9.10;;;;;;;;;;5073568;28;20203;-47
2022/10/15 12:40:58;;;;;;;8.03;7.23;;;;;;;;;;5072586;28;20202;-47
2022/10/15 12:43:26;;;;;;;8.97;8.07;;;;;;;;;;5073202;28;20219;-47
2022/10/15 12:45:53;;;;;;;9.07;8.27;;;;;;;;;;5072834;28;20241;-47
2022/10/15 12:48:21;;;;;;;8.03;7.33;;;;;;;;;;5073415;28;20222;-46
2022/10/15 12:50:47;;;;;;;8.57;7.80;;;;;;;;;;5073461;28;20265;-47
2022/10/15 12:53:31;;;;;;;9.57;8.67;;;;;;;;;;5073374;28;20207;-47
2022/10/15 12:56:14;;;;;;;9.97;7.93;;;;;;;;;;5072189;28;20214;-47
2022/10/15 12:58:42;;;;;;;9.97;8.23;;;;;;;;;;5073429;28;20565;-47
2022/10/15 13:01:27;;;;;;;8.47;7.60;;;;;;;;;;5072315;28;20222;-47
2022/10/15 13:03:54;;;;;;;9.13;7.77;;;;;;;;;;5072332;28;20195;-46
2022/10/15 13:06:32;;;;;;;7.27;6.57;;;;;;;;;;5072619;28;20225;-47
2022/10/15 13:09:04;;;;;;;6.67;5.97;;;;;;;;;;5072743;28;20227;-47
2022/10/15 13:11:32;;;;;;;7.23;6.17;;;;;;;;;;5073342;28;20305;-47
2022/10/15 13:14:01;;;;;;;6.43;5.70;;;;;;;;;;5072059;28;20206;-47
2022/10/15 13:16:27;;;;;;;6.27;5.70;;;;;;;;;;5072911;28;20253;-47
2022/10/15 13:18:57;;;;;;;6.83;6.03;;;;;;;;;;5073521;28;20192;-46
2022/10/15 13:21:44;;;;;;;6.93;6.30;;;;;;;;;;5069268;28;20203;-46
2022/10/15 13:24:11;;;;;;;6.50;5.90;;;;;;;;;;5072896;28;20214;-46
2022/10/15 13:26:37;;;;;;;6.27;5.77;;;;;;;;;;5073109;28;20709;-46
2022/10/15 13:29:04;;;;;;;6.87;5.73;;;;;;;;;;5073024;28;20229;-47
2022/10/15 13:31:31;;;;;;;5.87;5.30;;;;;;;;;;5073406;28;20243;-47
2022/10/15 13:34:00;;;;;;;7.47;6.77;;;;;;;;;;5073241;28;20205;-48
2022/10/15 13:36:27;;;;;;;6.63;6.07;;;;;;;;;;5073294;28;20672;-46
2022/10/15 13:38:55;;;;;;;8.07;6.53;;;;;;;;;;5073231;28;20205;-47
2022/10/15 13:41:23;;;;;;;7.53;6.17;;;;;;;;;;5072506;28;20254;-47
2022/10/15 13:43:50;;;;;;;9.33;6.00;;;;;;;;;;5072809;28;20214;-47
2022/10/15 13:46:18;;;;;;;6.40;5.80;;;;;;;;;;5072773;28;20549;-47
2022/10/15 13:48:44;;;;;;;6.97;5.90;;;;;;;;;;5072704;28;20957;-47
2022/10/15 13:51:12;;;;;;;5.80;5.30;;;;;;;;;;5072601;28;20318;-47
2022/10/15 13:53:39;;;;;;;5.90;5.30;;;;;;;;;;5072298;28;20230;-47
2022/10/15 13:56:18;;;;;;;6.60;6.03;;;;;;;;;;5072726;28;20683;-47
2022/10/15 13:58:46;;;;;;;5.00;4.60;;;;;;;;;;5072908;28;20197;-46
2022/10/15 14:01:14;;;;;;;4.70;4.30;;;;;;;;;;5072617;28;20201;-46
2022/10/15 14:03:48;;;;;;;5.03;4.60;;;;;;;;;;5072783;28;20237;-47
2022/10/15 14:06:16;;;;;;;5.13;4.73;;;;;;;;;;5072556;28;20602;-47
2022/10/15 14:08:42;;;;;;;5.63;4.83;;;;;;;;;;5072388;28;20305;-47
2022/10/15 14:11:11;;;;;;;5.07;4.57;;;;;;;;;;5072194;28;20685;-46
2022/10/15 14:13:43;;;;;;;4.93;4.43;;;;;;;;;;5072564;28;20199;-46
2022/10/15 14:16:15;;;;;;;5.80;5.30;;;;;;;;;;5072425;28;20199;-46
2022/10/15 14:18:42;;;;;;;5.13;4.67;;;;;;;;;;5072449;28;20196;-47
2022/10/15 14:21:14;;;;;;;5.17;4.67;;;;;;;;;;5072204;28;20208;-46
2022/10/15 14:23:42;;;;;;;5.23;4.73;;;;;;;;;;5072143;28;20255;-46
2022/10/15 14:26:09;;;;;;;4.70;3.37;;;;;;;;;;5072362;28;20197;-46